createdAt,value
2023-05-11T00:00:02.872Z,1012.57
2023-05-11T00:16:04.123Z,1012.47
2023-05-11T00:30:59.850Z,1012.36
2023-05-11T00:46:00.536Z,1012.3
2023-05-11T01:00:01.507Z,1012.16
2023-05-11T01:16:02.731Z,1012.06
2023-05-11T01:31:03.676Z,1011.99
2023-05-11T01:45:59.726Z,1011.86
2023-05-11T02:00:00.213Z,1011.79
2023-05-11T02:16:01.268Z,1011.69
2023-05-11T02:31:02.258Z,1011.65
2023-05-11T02:46:03.249Z,1011.55
2023-05-11T03:00:03.916Z,1011.42
2023-05-11T03:15:59.869Z,1011.31
2023-05-11T03:31:00.614Z,1011.28
2023-05-11T03:46:01.069Z,1011.18
2023-05-11T04:00:01.676Z,1011.18
2023-05-11T04:16:02.899Z,1011.21
2023-05-11T04:31:04.228Z,1011.31
2023-05-11T04:45:59.846Z,1011.38
2023-05-11T05:00:00.970Z,1011.48
2023-05-11T05:16:01.663Z,1011.28
2023-05-11T05:31:02.653Z,1011.42
2023-05-11T05:46:03.798Z,1011.48
2023-05-11T06:00:00.681Z,1011.62
2023-05-11T06:16:02.183Z,1011.75
2023-05-11T06:31:04.418Z,1011.62
2023-05-11T06:46:01.509Z,1011.52
2023-05-11T07:00:03.363Z,1011.59
2023-05-11T07:16:00.865Z,1011.69
2023-05-11T07:31:02.975Z,1011.82
2023-05-11T07:46:00.000Z,1011.89
2023-05-11T08:00:02.183Z,1011.96
2023-05-11T08:16:04.395Z,1011.92
2023-05-11T08:31:01.702Z,1011.96
2023-05-11T08:46:03.766Z,1011.82
2023-05-11T09:00:00.967Z,1011.82
2023-05-11T09:16:03.450Z,1011.69
2023-05-11T09:31:00.725Z,1011.65
2023-05-11T09:46:02.985Z,1011.48
2023-05-11T09:59:59.873Z,1011.45
2023-05-11T10:16:02.054Z,1011.48
2023-05-11T10:31:04.239Z,1011.42
2023-05-11T10:46:01.381Z,1011.35
2023-05-11T11:00:03.440Z,1011.31
2023-05-11T11:16:00.886Z,1011.38
2023-05-11T11:31:02.854Z,1011.31
2023-05-11T11:46:00.372Z,1011.35
2023-05-11T12:00:02.381Z,1011.42
2023-05-11T12:16:04.579Z,1011.45
2023-05-11T12:31:01.664Z,1011.45
2023-05-11T12:46:03.815Z,1011.59
2023-05-11T13:00:02.941Z,1011.62
2023-05-11T13:16:03.041Z,1011.59
2023-05-11T13:31:00.413Z,1011.69
2023-05-11T13:46:02.489Z,1011.75
2023-05-11T14:00:04.573Z,1011.86
2023-05-11T14:16:01.718Z,1011.89
2023-05-11T14:31:04.084Z,1011.89
2023-05-11T14:46:01.040Z,1011.86
2023-05-11T15:00:03.116Z,1011.96
2023-05-11T15:16:00.464Z,1011.82
2023-05-11T15:31:02.811Z,1011.82
2023-05-11T15:45:59.809Z,1011.89
2023-05-11T16:00:01.782Z,1011.79
2023-05-11T16:16:04.033Z,1011.79
2023-05-11T16:31:01.328Z,1011.99
2023-05-11T16:46:03.683Z,1011.99
2023-05-11T17:00:00.689Z,1011.99
2023-05-11T17:16:03.027Z,1012.09
2023-05-11T17:31:00.280Z,1012.13
2023-05-11T17:46:02.385Z,1012.16
2023-05-11T18:00:04.246Z,1012.3
2023-05-11T18:16:01.586Z,1012.4
2023-05-11T18:31:03.845Z,1012.4
2023-05-11T18:46:01.042Z,1012.53
2023-05-11T19:00:03.012Z,1012.6
2023-05-11T19:16:00.033Z,1012.67
2023-05-11T19:31:02.262Z,1012.77
2023-05-11T19:45:59.616Z,1012.94
2023-05-11T20:00:03.709Z,1012.91
2023-05-11T20:16:04.042Z,1012.87
2023-05-11T20:31:01.020Z,1012.94
2023-05-11T20:46:03.420Z,1012.91
2023-05-11T21:02:02.302Z,1012.97
2023-05-11T21:16:02.630Z,1012.94
2023-05-11T21:30:59.834Z,1012.97
2023-05-11T21:46:01.965Z,1012.91
2023-05-11T22:00:03.882Z,1012.94
2023-05-11T22:16:01.045Z,1013.04
2023-05-11T22:31:03.291Z,1013.14
2023-05-11T22:46:00.508Z,1013.11
2023-05-11T23:00:02.557Z,1013.04
2023-05-11T23:15:59.917Z,1013.11
2023-05-11T23:31:02.030Z,1013.08
2023-05-11T23:46:04.170Z,1013.04
